Time;durP1;ratioP1;P1;durP2;ratioP2;P2;SDS_P1;SDS_P2;PMS_P1;PMS_P2;Temp;Humidity;BMP_temperature;BMP_pressure;BME280_temperature;BME280_humidity;BME280_pressure;Samples;Min_cycle;Max_cycle;Signal;HPM_P1;HPM_P2
2022/01/15 00:01:23;;;;;;;;;;;;;;;;;;7400040;19;19911;-44
2022/01/15 00:03:50;;;;;;;;;;;;;;;;;;7396520;19;19932;-44
2022/01/15 00:06:18;;;;;;;;;;;;;;;;;;7395434;19;20458;-46
2022/01/15 00:08:45;;;;;;;;;;;;;;;;;;7395291;19;19934;-44
2022/01/15 00:11:12;;;;;;;;;;;;;;;;;;7396561;19;19919;-42
2022/01/15 00:13:42;;;;;;;;;;;;;;;;;;7394522;19;19923;-44
2022/01/15 00:16:26;;;;;;;;;;;;;;;;;;7396327;19;19919;-44
2022/01/15 00:19:05;;;;;;;;;;;;;;;;;;7396653;19;19921;-43
2022/01/15 00:21:33;;;;;;;;;;;;;;;;;;7399446;19;19974;-43
2022/01/15 00:24:01;;;;;;;;;;;;;;;;;;7396086;19;19931;-43
2022/01/15 00:26:29;;;;;;;;;;;;;;;;;;7396305;19;19915;-44
2022/01/15 00:28:56;;;;;;;;;;;;;;;;;;7395208;19;20336;-47
2022/01/15 00:31:23;;;;;;;;;;;;;;;;;;7395858;19;19938;-43
2022/01/15 00:33:50;;;;;;;;;;;;;;;;;;7394238;19;19919;-48
2022/01/15 00:36:18;;;;;;;;;;;;;;;;;;7396106;19;19918;-44
2022/01/15 00:38:46;;;;;;;;;;;;;;;;;;7395415;19;19911;-43
2022/01/15 00:41:13;;;;;;;;;;;;;;;;;;7395286;19;19915;-45
2022/01/15 00:43:41;;;;;;;;;;;;;;;;;;7395225;19;19915;-49
2022/01/15 00:46:08;;;;;;;;;;;;;;;;;;7395453;19;19922;-47
2022/01/15 00:48:35;;;;;;;;;;;;;;;;;;7393231;19;19922;-43
2022/01/15 00:51:03;;;;;;;;;;;;;;;;;;7394266;19;19978;-46
2022/01/15 00:53:30;;;;;;;;;;;;;;;;;;7393602;19;19907;-45
2022/01/15 00:55:57;;;;;;;;;;;;;;;;;;7393581;19;19926;-43
2022/01/15 00:58:24;;;;;;;;;;;;;;;;;;7394827;19;19915;-48
2022/01/15 01:00:51;;;;;;;;;;;;;;;;;;7395257;19;19947;-48
2022/01/15 01:03:19;;;;;;;;;;;;;;;;;;7395387;19;19918;-47
2022/01/15 01:05:46;;;;;;;;;;;;;;;;;;7395123;19;19948;-46
2022/01/15 01:08:13;;;;;;;;;;;;;;;;;;7395108;19;19919;-48
2022/01/15 01:10:54;;;;;;;;;;;;;;;;;;7393817;19;19919;-43
2022/01/15 01:23:48;;;;;;;;;;;;;;;;;;7394784;19;19941;-43
2022/01/15 01:26:43;;;;;;;;;;;;;;;;;;7394446;19;19954;-44
2022/01/15 01:29:27;;;;;;;;;;;;;;;;;;7393939;19;19911;-44
2022/01/15 01:32:14;;;;;;;;;;;;;;;;;;7391986;19;19911;-45
2022/01/15 01:34:43;;;;;;;;;;;;;;;;;;7393921;19;19921;-44
2022/01/15 01:37:24;;;;;;;;;;;;;;;;;;7393737;19;19951;-45
2022/01/15 01:40:01;;;;;;;;;;;;;;;;;;7394120;19;19919;-43
2022/01/15 01:42:38;;;;;;;;;;;;;;;;;;7393467;19;19921;-42
2022/01/15 01:45:12;;;;;;;;;;;;;;;;;;7393329;19;19907;-42
2022/01/15 01:47:41;;;;;;;;;;;;;;;;;;7393590;19;19944;-43
2022/01/15 01:50:25;;;;;;;;;;;;;;;;;;7393706;19;20266;-42
2022/01/15 01:52:53;;;;;;;;;;;;;;;;;;7392776;19;19958;-45
2022/01/15 01:55:24;;;;;;;;;;;;;;;;;;7391501;19;19918;-44
2022/01/15 01:57:52;;;;;;;;;;;;;;;;;;7393407;19;19925;-43
2022/01/15 02:00:21;;;;;;;;;;;;;;;;;;7391808;19;19915;-47
2022/01/15 02:02:48;;;;;;;;;;;;;;;;;;7393637;19;19915;-44
2022/01/15 02:05:16;;;;;;;;;;;;;;;;;;7393044;19;19911;-43
2022/01/15 02:07:43;;;;;;;;;;;;;;;;;;7393848;19;19986;-41
2022/01/15 02:10:13;;;;;;;;;;;;;;;;;;7392029;19;19914;-42
2022/01/15 02:12:41;;;;;;;;;;;;;;;;;;7392253;19;19938;-43
2022/01/15 02:15:09;;;;;;;;;;;;;;;;;;7392291;19;20350;-42
2022/01/15 02:17:37;;;;;;;;;;;;;;;;;;7392455;19;19915;-42
2022/01/15 02:25:43;;;;;;;;;;;;;;;;;;7392068;19;19918;-43
2022/01/15 02:28:11;;;;;;;;;;;;;;;;;;7391936;19;20334;-42
2022/01/15 02:30:38;;;;;;;;;;;;;;;;;;7391160;19;19923;-45
2022/01/15 02:33:06;;;;;;;;;;;;;;;;;;7390827;19;19910;-43
2022/01/15 02:35:35;;;;;;;;;;;;;;;;;;7391771;19;19911;-44
2022/01/15 02:38:03;;;;;;;;;;;;;;;;;;7391794;19;19914;-42
2022/01/15 02:40:33;;;;;;;;;;;;;;;;;;7391630;19;19938;-44
2022/01/15 02:43:04;;;;;;;;;;;;;;;;;;7391456;19;19918;-44
2022/01/15 02:45:36;;;;;;;;;;;;;;;;;;7391738;19;19932;-44
2022/01/15 02:48:09;;;;;;;;;;;;;;;;;;7391675;19;19926;-44
2022/01/15 02:50:37;;;;;;;;;;;;;;;;;;7391273;19;20247;-48
2022/01/15 02:53:04;;;;;;;;;;;;;;;;;;7390213;19;19911;-42
2022/01/15 02:55:31;;;;;;;;;;;;;;;;;;7391156;19;19923;-43
2022/01/15 02:57:58;;;;;;;;;;;;;;;;;;7391809;19;19930;-45
2022/01/15 03:00:27;;;;;;;;;;;;;;;;;;7391442;19;19911;-46
2022/01/15 03:02:54;;;;;;;;;;;;;;;;;;7391034;19;19929;-44
2022/01/15 03:05:21;;;;;;;;;;;;;;;;;;7390813;19;19915;-41
2022/01/15 03:07:48;;;;;;;;;;;;;;;;;;7391450;19;19923;-47
2022/01/15 03:10:16;;;;;;;;;;;;;;;;;;7391289;19;19917;-46
2022/01/15 03:12:43;;;;;;;;;;;;;;;;;;7390594;19;19910;-43
2022/01/15 03:15:13;;;;;;;;;;;;;;;;;;7391074;19;19919;-43
2022/01/15 03:17:40;;;;;;;;;;;;;;;;;;7390695;19;19914;-41
2022/01/15 03:20:08;;;;;;;;;;;;;;;;;;7390755;19;19974;-43
2022/01/15 03:22:35;;;;;;;;;;;;;;;;;;7390886;19;19919;-43
2022/01/15 03:25:02;;;;;;;;;;;;;;;;;;7390118;19;20464;-45
2022/01/15 03:27:29;;;;;;;;;;;;;;;;;;7390636;19;19918;-43
2022/01/15 03:29:58;;;;;;;;;;;;;;;;;;7390739;19;19918;-44
2022/01/15 03:32:25;;;;;;;;;;;;;;;;;;7391472;19;19917;-45
2022/01/15 03:34:52;;;;;;;;;;;;;;;;;;7388235;19;20482;-41
2022/01/15 03:37:20;;;;;;;;;;;;;;;;;;7390170;19;19915;-41
2022/01/15 03:39:47;;;;;;;;;;;;;;;;;;7389777;19;19982;-44
2022/01/15 03:42:15;;;;;;;;;;;;;;;;;;7391997;19;19949;-43
2022/01/15 03:44:43;;;;;;;;;;;;;;;;;;7396774;19;19918;-43
2022/01/15 03:47:11;;;;;;;;;;;;;;;;;;7396617;19;20237;-44
2022/01/15 03:49:38;;;;;;;;;;;;;;;;;;7397166;19;19915;-46
2022/01/15 03:52:06;;;;;;;;;;;;;;;;;;7397246;19;19922;-42
2022/01/15 03:54:33;;;;;;;;;;;;;;;;;;7394829;19;19918;-45
2022/01/15 03:57:02;;;;;;;;;;;;;;;;;;7393737;19;20164;-43
2022/01/15 03:59:29;;;;;;;;;;;;;;;;;;7397319;19;19978;-48
2022/01/15 04:01:59;;;;;;;;;;;;;;;;;;7397053;19;19911;-46
2022/01/15 04:04:26;;;;;;;;;;;;;;;;;;7396574;19;20339;-42
2022/01/15 04:06:53;;;;;;;;;;;;;;;;;;7396270;19;19942;-43
2022/01/15 04:09:20;;;;;;;;;;;;;;;;;;7396897;19;19914;-43
2022/01/15 04:11:48;;;;;;;;;;;;;;;;;;7395030;19;19915;-45
2022/01/15 04:14:15;;;;;;;;;;;;;;;;;;7394669;19;19914;-43
2022/01/15 04:16:42;;;;;;;;;;;;;;;;;;7394621;19;20332;-43
2022/01/15 04:19:10;;;;;;;;;;;;;;;;;;7396460;19;20435;-44
2022/01/15 04:21:37;;;;;;;;;;;;;;;;;;7399635;19;19942;-42
2022/01/15 04:24:05;;;;;;;;;;;;;;;;;;7394268;19;19919;-45
2022/01/15 04:26:33;;;;;;;;;;;;;;;;;;7397820;19;19938;-41
2022/01/15 04:29:04;;;;;;;;;;;;;;;;;;7396884;19;19915;-45
2022/01/15 04:31:46;;;;;;;;;;;;;;;;;;7396584;19;20392;-46
2022/01/15 04:34:15;;;;;;;;;;;;;;;;;;7394476;19;20327;-48
2022/01/15 04:36:43;;;;;;;;;;;;;;;;;;7395786;19;20345;-42
2022/01/15 04:39:10;;;;;;;;;;;;;;;;;;7396508;19;20340;-49
2022/01/15 04:41:38;;;;;;;;;;;;;;;;;;7395710;19;19915;-42
2022/01/15 04:44:06;;;;;;;;;;;;;;;;;;7395149;19;19914;-44
2022/01/15 04:46:34;;;;;;;;;;;;;;;;;;7395629;19;19946;-43
2022/01/15 04:49:02;;;;;;;;;;;;;;;;;;7395777;19;20212;-43
2022/01/15 04:51:29;;;;;;;;;;;;;;;;;;7395853;19;19947;-43
2022/01/15 04:53:57;;;;;;;;;;;;;;;;;;7394437;19;19966;-45
2022/01/15 04:56:24;;;;;;;;;;;;;;;;;;7393488;19;19919;-44
2022/01/15 04:58:52;;;;;;;;;;;;;;;;;;7395425;19;19922;-45
2022/01/15 05:01:19;;;;;;;;;;;;;;;;;;7395101;19;19919;-46
2022/01/15 05:03:46;;;;;;;;;;;;;;;;;;7394923;19;19919;-42
2022/01/15 05:06:14;;;;;;;;;;;;;;;;;;7394187;19;19918;-42
2022/01/15 05:08:44;;;;;;;;;;;;;;;;;;7395035;19;19911;-46
2022/01/15 05:11:27;;;;;;;;;;;;;;;;;;7394651;19;19935;-43
2022/01/15 05:13:54;;;;;;;;;;;;;;;;;;7393350;19;19918;-48
2022/01/15 05:16:21;;;;;;;;;;;;;;;;;;7393413;19;20185;-44
2022/01/15 05:18:49;;;;;;;;;;;;;;;;;;7394902;19;19918;-49
2022/01/15 05:21:17;;;;;;;;;;;;;;;;;;7396956;19;19915;-44
2022/01/15 05:23:44;;;;;;;;;;;;;;;;;;7393974;19;20352;-45
2022/01/15 05:26:12;;;;;;;;;;;;;;;;;;7393958;19;19917;-42
2022/01/15 05:28:39;;;;;;;;;;;;;;;;;;7394028;19;19946;-43
2022/01/15 05:31:06;;;;;;;;;;;;;;;;;;7393639;19;19922;-43
2022/01/15 05:33:34;;;;;;;;;;;;;;;;;;7393696;19;19929;-44
2022/01/15 05:36:01;;;;;;;;;;;;;;;;;;7393459;19;19911;-50
2022/01/15 05:38:28;;;;;;;;;;;;;;;;;;7393142;19;19922;-44
2022/01/15 05:40:55;;;;;;;;;;;;;;;;;;7393575;19;19937;-43
2022/01/15 05:43:22;;;;;;;;;;;;;;;;;;7393511;19;19922;-42
2022/01/15 05:45:49;;;;;;;;;;;;;;;;;;7393364;19;19911;-43
2022/01/15 05:48:17;;;;;;;;;;;;;;;;;;7393412;19;19932;-44
2022/01/15 05:50:44;;;;;;;;;;;;;;;;;;7393188;19;19926;-48
2022/01/15 05:53:12;;;;;;;;;;;;;;;;;;7393427;19;19923;-46
2022/01/15 05:55:39;;;;;;;;;;;;;;;;;;7391758;19;19923;-43
2022/01/15 05:58:07;;;;;;;;;;;;;;;;;;7392636;19;19935;-47
2022/01/15 06:00:34;;;;;;;;;;;;;;;;;;7392491;19;19914;-44
2022/01/15 06:03:02;;;;;;;;;;;;;;;;;;7393549;19;19914;-49
2022/01/15 06:05:29;;;;;;;;;;;;;;;;;;7391573;19;19978;-45
2022/01/15 06:07:56;;;;;;;;;;;;;;;;;;7392430;19;20241;-41
2022/01/15 06:10:23;;;;;;;;;;;;;;;;;;7392300;19;19922;-43
2022/01/15 06:12:50;;;;;;;;;;;;;;;;;;7392673;19;19982;-47
2022/01/15 06:15:18;;;;;;;;;;;;;;;;;;7391151;19;19921;-41
2022/01/15 06:17:45;;;;;;;;;;;;;;;;;;7392589;19;20280;-43
2022/01/15 06:20:13;;;;;;;;;;;;;;;;;;7393308;19;20114;-43
2022/01/15 06:22:40;;;;;;;;;;;;;;;;;;7392140;19;19914;-42
2022/01/15 06:25:08;;;;;;;;;;;;;;;;;;7392511;19;19915;-43
2022/01/15 06:27:35;;;;;;;;;;;;;;;;;;7392415;19;19915;-42
2022/01/15 06:30:03;;;;;;;;;;;;;;;;;;7391936;19;20332;-47
2022/01/15 06:32:35;;;;;;;;;;;;;;;;;;7392584;19;19919;-42
2022/01/15 06:35:04;;;;;;;;;;;;;;;;;;7392744;19;19911;-43
2022/01/15 06:37:31;;;;;;;;;;;;;;;;;;7392745;19;19944;-44
2022/01/15 06:39:58;;;;;;;;;;;;;;;;;;7392494;19;20256;-42
2022/01/15 06:42:26;;;;;;;;;;;;;;;;;;7392047;19;20360;-43
2022/01/15 06:44:53;;;;;;;;;;;;;;;;;;7391942;19;19990;-41
2022/01/15 06:47:20;;;;;;;;;;;;;;;;;;7392117;19;19915;-44
2022/01/15 06:49:47;;;;;;;;;;;;;;;;;;7391161;19;19918;-42
2022/01/15 06:52:15;;;;;;;;;;;;;;;;;;7391945;19;19915;-42
2022/01/15 06:54:42;;;;;;;;;;;;;;;;;;7389781;19;20249;-46
2022/01/15 06:57:09;;;;;;;;;;;;;;;;;;7391337;19;19919;-42
2022/01/15 06:59:36;;;;;;;;;;;;;;;;;;7391459;19;19982;-42
2022/01/15 07:02:05;;;;;;;;;;;;;;;;;;7391239;19;19918;-43
2022/01/15 07:04:33;;;;;;;;;;;;;;;;;;7390849;19;19927;-43
2022/01/15 07:07:00;;;;;;;;;;;;;;;;;;7391703;19;19970;-43
2022/01/15 07:09:27;;;;;;;;;;;;;;;;;;7391600;19;19967;-45
2022/01/15 07:11:56;;;;;;;;;;;;;;;;;;7390968;19;19922;-42
2022/01/15 07:14:24;;;;;;;;;;;;;;;;;;7389678;19;19918;-42
2022/01/15 07:16:52;;;;;;;;;;;;;;;;;;7389860;19;19914;-42
2022/01/15 07:19:20;;;;;;;;;;;;;;;;;;7397683;19;19915;-44
2022/01/15 07:21:47;;;;;;;;;;;;;;;;;;7401960;19;19993;-42
2022/01/15 07:24:16;;;;;;;;;;;;;;;;;;7398048;19;19922;-42
2022/01/15 07:26:43;;;;;;;;;;;;;;;;;;7397930;19;19942;-42
2022/01/15 07:29:14;;;;;;;;;;;;;;;;;;7395598;19;20377;-49
2022/01/15 07:31:46;;;;;;;;;;;;;;;;;;7395546;19;19946;-44
2022/01/15 07:34:13;;;;;;;;;;;;;;;;;;7395314;19;19911;-45
2022/01/15 07:36:41;;;;;;;;;;;;;;;;;;7396705;19;19915;-43
2022/01/15 07:39:09;;;;;;;;;;;;;;;;;;7400101;19;20332;-51
2022/01/15 07:41:36;;;;;;;;;;;;;;;;;;7396657;19;19919;-43
2022/01/15 07:44:04;;;;;;;;;;;;;;;;;;7397358;19;20341;-44
2022/01/15 07:46:31;;;;;;;;;;;;;;;;;;7397095;19;19994;-44
2022/01/15 07:48:59;;;;;;;;;;;;;;;;;;7396583;19;19922;-48
2022/01/15 07:51:26;;;;;;;;;;;;;;;;;;7397658;19;19918;-43
2022/01/15 07:53:53;;;;;;;;;;;;;;;;;;7396000;19;20336;-45
2022/01/15 07:56:21;;;;;;;;;;;;;;;;;;7395139;19;19923;-43
2022/01/15 07:58:48;;;;;;;;;;;;;;;;;;7395998;19;19915;-48
2022/01/15 08:01:16;;;;;;;;;;;;;;;;;;7397092;19;19915;-43
2022/01/15 08:03:44;;;;;;;;;;;;;;;;;;7396724;19;19938;-44
2022/01/15 08:06:11;;;;;;;;;;;;;;;;;;7396842;19;20343;-44
2022/01/15 08:08:38;;;;;;;;;;;;;;;;;;7395811;19;19946;-46
2022/01/15 08:11:06;;;;;;;;;;;;;;;;;;7396969;19;19915;-47
2022/01/15 08:13:33;;;;;;;;;;;;;;;;;;7396521;19;19914;-46
2022/01/15 08:16:04;;;;;;;;;;;;;;;;;;7394656;19;19937;-43
2022/01/15 08:18:32;;;;;;;;;;;;;;;;;;7396355;19;19923;-47
2022/01/15 08:20:59;;;;;;;;;;;;;;;;;;7398536;19;19919;-43
2022/01/15 08:23:27;;;;;;;;;;;;;;;;;;7396313;19;19919;-43
2022/01/15 08:25:54;;;;;;;;;;;;;;;;;;7392607;19;19983;-50
2022/01/15 08:28:23;;;;;;;;;;;;;;;;;;7391823;19;19944;-46
2022/01/15 08:30:50;;;;;;;;;;;;;;;;;;7391861;19;19929;-45
2022/01/15 08:33:18;;;;;;;;;;;;;;;;;;7392372;19;19918;-45
2022/01/15 08:35:45;;;;;;;;;;;;;;;;;;7389451;19;19926;-43
2022/01/15 08:38:12;;;;;;;;;;;;;;;;;;7390676;19;19934;-44
2022/01/15 08:40:39;;;;;;;;;;;;;;;;;;7392265;19;19923;-44
2022/01/15 08:43:07;;;;;;;;;;;;;;;;;;7392782;19;19930;-45
2022/01/15 08:45:36;;;;;;;;;;;;;;;;;;7391600;19;20332;-45
2022/01/15 08:48:04;;;;;;;;;;;;;;;;;;7391565;19;19914;-48
2022/01/15 08:50:31;;;;;;;;;;;;;;;;;;7389912;19;20018;-45
2022/01/15 08:52:59;;;;;;;;;;;;;;;;;;7392785;19;19914;-45
2022/01/15 08:55:29;;;;;;;;;;;;;;;;;;7388590;19;19923;-44
2022/01/15 08:57:59;;;;;;;;;;;;;;;;;;7390943;19;19921;-42
2022/01/15 09:00:27;;;;;;;;;;;;;;;;;;7391148;19;19918;-44
2022/01/15 09:02:55;;;;;;;;;;;;;;;;;;7390185;19;19919;-46
2022/01/15 09:05:23;;;;;;;;;;;;;;;;;;7390738;19;19926;-45
2022/01/15 09:07:51;;;;;;;;;;;;;;;;;;7390202;19;20284;-48
2022/01/15 09:10:18;;;;;;;;;;;;;;;;;;7390180;19;19918;-48
2022/01/15 09:12:46;;;;;;;;;;;;;;;;;;7389781;19;19929;-46
2022/01/15 09:15:27;;;;;;;;;;;;;;;;;;7388644;19;20344;-47
2022/01/15 09:17:54;;;;;;;;;;;;;;;;;;7389223;19;19921;-50
2022/01/15 09:20:21;;;;;;;;;;;;;;;;;;7390948;19;19915;-46
2022/01/15 09:22:49;;;;;;;;;;;;;;;;;;7390242;19;19938;-45
2022/01/15 09:25:16;;;;;;;;;;;;;;;;;;7389142;19;20384;-44
2022/01/15 09:30:29;;;;;;;;;;;;;;;;;;7380831;19;19926;-41
2022/01/15 09:32:58;;;;;;;;;;;;;;;;;;7393024;19;19918;-43
2022/01/15 09:35:27;;;;;;;;;;;;;;;;;;7392049;19;19995;-49
2022/01/15 09:37:55;;;;;;;;;;;;;;;;;;7393482;19;19921;-46
2022/01/15 09:40:24;;;;;;;;;;;;;;;;;;7389732;19;19923;-49
2022/01/15 09:42:51;;;;;;;;;;;;;;;;;;7392722;19;19919;-52
2022/01/15 09:45:20;;;;;;;;;;;;;;;;;;7393142;19;19953;-45
2022/01/15 09:48:07;;;;;;;;;;;;;;;;;;7392913;19;19926;-43
2022/01/15 09:50:37;;;;;;;;;;;;;;;;;;7392681;19;19910;-50
2022/01/15 09:53:05;;;;;;;;;;;;;;;;;;7391730;19;19919;-46
2022/01/15 09:55:32;;;;;;;;;;;;;;;;;;7388351;19;19923;-47
2022/01/15 09:57:59;;;;;;;;;;;;;;;;;;7390118;19;19970;-44
2022/01/15 10:00:27;;;;;;;;;;;;;;;;;;7388770;19;19919;-45
2022/01/15 10:02:59;;;;;;;;;;;;;;;;;;7389186;19;19922;-47
2022/01/15 10:05:26;;;;;;;;;;;;;;;;;;7389325;19;19922;-49
2022/01/15 10:08:01;;;;;;;;;;;;;;;;;;7388617;19;20555;-45
2022/01/15 10:10:32;;;;;;;;;;;;;;;;;;7388843;19;19978;-51
2022/01/15 10:13:18;;;;;;;;;;;;;;;;;;7387918;19;20299;-50
2022/01/15 10:15:47;;;;;;;;;;;;;;;;;;7387337;19;19915;-50
2022/01/15 10:18:35;;;;;;;;;;;;;;;;;;7391462;19;19923;-43
2022/01/15 10:21:18;;;;;;;;;;;;;;;;;;7394156;19;19915;-44
2022/01/15 10:23:47;;;;;;;;;;;;;;;;;;7395796;19;19919;-53
2022/01/15 10:26:15;;;;;;;;;;;;;;;;;;7391581;19;19956;-45
2022/01/15 10:28:52;;;;;;;;;;;;;;;;;;7391880;19;19907;-48
2022/01/15 10:31:20;;;;;;;;;;;;;;;;;;7389038;19;19925;-44
2022/01/15 10:33:47;;;;;;;;;;;;;;;;;;7388715;19;19918;-44
2022/01/15 10:36:22;;;;;;;;;;;;;;;;;;7386252;19;19929;-44
2022/01/15 10:38:50;;;;;;;;;;;;;;;;;;7387793;19;19980;-43
2022/01/15 10:41:30;;;;;;;;;;;;;;;;;;7387829;19;19910;-51
2022/01/15 10:43:57;;;;;;;;;;;;;;;;;;7392835;19;19915;-45
2022/01/15 10:46:37;;;;;;;;;;;;;;;;;;7386379;19;19927;-49
2022/01/15 10:49:23;;;;;;;;;;;;;;;;;;7388145;19;20472;-47
2022/01/15 10:52:08;;;;;;;;;;;;;;;;;;7390543;19;19927;-44
2022/01/15 10:54:57;;;;;;;;;;;;;;;;;;7394205;19;19922;-50
2022/01/15 10:57:29;;;;;;;;;;;;;;;;;;7391994;19;20406;-48
2022/01/15 11:00:14;;;;;;;;;;;;;;;;;;7394306;19;19923;-49
2022/01/15 11:02:43;;;;;;;;;;;;;;;;;;7396953;19;19915;-46
2022/01/15 11:05:19;;;;;;;;;;;;;;;;;;7397993;19;20327;-52
2022/01/15 11:07:47;;;;;;;;;;;;;;;;;;7397461;19;20462;-50
2022/01/15 11:10:14;;;;;;;;;;;;;;;;;;7397643;19;20342;-47
2022/01/15 11:12:41;;;;;;;;;;;;;;;;;;7397473;19;19939;-50
2022/01/15 11:15:09;;;;;;;;;;;;;;;;;;7395850;19;19943;-45
2022/01/15 11:17:36;;;;;;;;;;;;;;;;;;7396639;19;20336;-51
2022/01/15 11:20:05;;;;;;;;;;;;;;;;;;7396133;19;19971;-50
2022/01/15 11:22:32;;;;;;;;;;;;;;;;;;7396755;19;19914;-48
2022/01/15 11:24:59;;;;;;;;;;;;;;;;;;7396816;19;19926;-49
2022/01/15 11:27:28;;;;;;;;;;;;;;;;;;7398698;19;19916;-48
2022/01/15 11:29:58;;;;;;;;;;;;;;;;;;7396414;19;19991;-49
2022/01/15 11:32:26;;;;;;;;;;;;;;;;;;7395729;19;19929;-48
2022/01/15 11:34:59;;;;;;;;;;;;;;;;;;7395609;19;20260;-48
2022/01/15 11:37:37;;;;;;;;;;;;;;;;;;7395792;19;20234;-46
2022/01/15 11:40:23;;;;;;;;;;;;;;;;;;7396269;19;19946;-45
2022/01/15 11:42:54;;;;;;;;;;;;;;;;;;7395749;19;20340;-48
2022/01/15 11:45:34;;;;;;;;;;;;;;;;;;7395371;19;20364;-47
2022/01/15 11:48:33;;;;;;;;;;;;;;;;;;7394372;19;19943;-48
2022/01/15 11:51:16;;;;;;;;;;;;;;;;;;7394697;19;19942;-48
2022/01/15 11:53:47;;;;;;;;;;;;;;;;;;7396021;19;19955;-46
2022/01/15 11:56:14;;;;;;;;;;;;;;;;;;7393297;19;19923;-49
2022/01/15 11:58:41;;;;;;;;;;;;;;;;;;7393690;19;19919;-44
2022/01/15 12:01:30;;;;;;;;;;;;;;;;;;7394930;19;19927;-43
2022/01/15 12:04:17;;;;;;;;;;;;;;;;;;7391870;19;19915;-45
2022/01/15 12:07:10;;;;;;;;;;;;;;;;;;7395090;19;19922;-43
2022/01/15 12:09:41;;;;;;;;;;;;;;;;;;7394353;19;19919;-47
2022/01/15 12:12:17;;;;;;;;;;;;;;;;;;7394634;19;19964;-51
2022/01/15 12:14:56;;;;;;;;;;;;;;;;;;7395132;19;19919;-49
2022/01/15 12:17:30;;;;;;;;;;;;;;;;;;7393162;19;20443;-47
2022/01/15 12:20:07;;;;;;;;;;;;;;;;;;7396246;19;19915;-43
2022/01/15 12:22:45;;;;;;;;;;;;;;;;;;7394814;19;19934;-43
2022/01/15 12:25:27;;;;;;;;;;;;;;;;;;7395596;19;19922;-44
2022/01/15 12:27:59;;;;;;;;;;;;;;;;;;7398442;19;20436;-48
2022/01/15 12:30:27;;;;;;;;;;;;;;;;;;7394528;19;19925;-51
2022/01/15 12:32:56;;;;;;;;;;;;;;;;;;7394165;19;20698;-43
2022/01/15 12:35:36;;;;;;;;;;;;;;;;;;7393254;19;19927;-43
2022/01/15 12:38:13;;;;;;;;;;;;;;;;;;7393964;19;20336;-49
2022/01/15 12:40:45;;;;;;;;;;;;;;;;;;7393074;19;19915;-48
2022/01/15 12:43:16;;;;;;;;;;;;;;;;;;7393913;19;19936;-51
2022/01/15 12:45:45;;;;;;;;;;;;;;;;;;7393934;19;19987;-43
2022/01/15 12:48:17;;;;;;;;;;;;;;;;;;7392211;19;20256;-44
2022/01/15 12:50:46;;;;;;;;;;;;;;;;;;7393109;19;19922;-45
2022/01/15 12:53:14;;;;;;;;;;;;;;;;;;7393893;19;20328;-50
2022/01/15 12:55:42;;;;;;;;;;;;;;;;;;7392527;19;19919;-44
2022/01/15 12:58:09;;;;;;;;;;;;;;;;;;7394200;19;19915;-52
2022/01/15 13:00:38;;;;;;;;;;;;;;;;;;7392380;19;20259;-48
2022/01/15 13:03:10;;;;;;;;;;;;;;;;;;7393579;19;19923;-44
2022/01/15 13:05:39;;;;;;;;;;;;;;;;;;7394607;19;19950;-44
2022/01/15 13:08:07;;;;;;;;;;;;;;;;;;7393663;19;19922;-44
2022/01/15 13:10:52;;;;;;;;;;;;;;;;;;7393057;19;19919;-43
2022/01/15 13:13:33;;;;;;;;;;;;;;;;;;7395800;19;19915;-50
2022/01/15 13:16:30;;;;;;;;;;;;;;;;;;7389295;19;19928;-51
2022/01/15 13:18:58;;;;;;;;;;;;;;;;;;7392877;19;19929;-46
2022/01/15 13:21:27;;;;;;;;;;;;;;;;;;7395672;19;19926;-43
2022/01/15 13:23:55;;;;;;;;;;;;;;;;;;7391475;19;19925;-44
2022/01/15 13:26:28;;;;;;;;;;;;;;;;;;7397505;19;19939;-42
2022/01/15 13:29:00;;;;;;;;;;;;;;;;;;7392736;19;19929;-46
2022/01/15 13:31:31;;;;;;;;;;;;;;;;;;7391927;19;19947;-43
2022/01/15 13:34:11;;;;;;;;;;;;;;;;;;7392620;19;19919;-47
2022/01/15 13:36:40;;;;;;;;;;;;;;;;;;7390974;19;19915;-43
2022/01/15 13:39:08;;;;;;;;;;;;;;;;;;7392311;19;19938;-46
2022/01/15 13:41:57;;;;;;;;;;;;;;;;;;7391611;19;19914;-43
2022/01/15 13:44:34;;;;;;;;;;;;;;;;;;7388802;19;19930;-43
2022/01/15 13:47:08;;;;;;;;;;;;;;;;;;7392443;19;20300;-42
2022/01/15 13:53:05;;;;;;;;;;;;;;;;;;7392393;19;19907;-44
2022/01/15 13:55:15;;;;;;;;;;;;;;;;;;7390709;19;19919;-45
2022/01/15 13:57:42;;;;;;;;;;;;;;;;;;7393399;19;19925;-43
2022/01/15 14:00:10;;;;;;;;;;;;;;;;;;7392169;19;19911;-43
2022/01/15 14:02:38;;;;;;;;;;;;;;;;;;7391308;19;19923;-42
2022/01/15 14:05:20;;;;;;;;;;;;;;;;;;7392166;19;20319;-43
2022/01/15 14:07:48;;;;;;;;;;;;;;;;;;7389840;19;19911;-42
2022/01/15 14:10:28;;;;;;;;;;;;;;;;;;7391294;19;19911;-46
2022/01/15 14:12:59;;;;;;;;;;;;;;;;;;7391270;19;19927;-46
2022/01/15 14:15:33;;;;;;;;;;;;;;;;;;7389113;19;19914;-44
2022/01/15 14:18:07;;;;;;;;;;;;;;;;;;7390956;19;20018;-43
2022/01/15 14:20:54;;;;;;;;;;;;;;;;;;7392149;19;19923;-46
2022/01/15 14:23:39;;;;;;;;;;;;;;;;;;7391079;19;19968;-41
2022/01/15 14:26:15;;;;;;;;;;;;;;;;;;7393129;19;19918;-41
2022/01/15 14:28:43;;;;;;;;;;;;;;;;;;7391066;19;20343;-46
2022/01/15 14:31:10;;;;;;;;;;;;;;;;;;7391220;19;19918;-44
2022/01/15 14:33:44;;;;;;;;;;;;;;;;;;7390933;19;19919;-45
2022/01/15 14:36:13;;;;;;;;;;;;;;;;;;7390146;19;19911;-48
2022/01/15 14:38:40;;;;;;;;;;;;;;;;;;7390705;19;19915;-44
2022/01/15 14:41:09;;;;;;;;;;;;;;;;;;7388554;19;19919;-42
2022/01/15 14:43:37;;;;;;;;;;;;;;;;;;7390382;19;19934;-42
2022/01/15 14:46:06;;;;;;;;;;;;;;;;;;7393238;19;19922;-42
2022/01/15 14:48:35;;;;;;;;;;;;;;;;;;7390486;19;19931;-40
2022/01/15 14:51:03;;;;;;;;;;;;;;;;;;7390526;19;19919;-43
2022/01/15 14:53:30;;;;;;;;;;;;;;;;;;7390186;19;20229;-42
2022/01/15 14:56:00;;;;;;;;;;;;;;;;;;7388913;19;19947;-44
2022/01/15 14:58:27;;;;;;;;;;;;;;;;;;7389476;19;20345;-44
2022/01/15 15:00:55;;;;;;;;;;;;;;;;;;7388663;19;19914;-46
2022/01/15 15:03:22;;;;;;;;;;;;;;;;;;7390302;19;19923;-48
2022/01/15 15:05:50;;;;;;;;;;;;;;;;;;7389893;19;19918;-46
2022/01/15 15:08:18;;;;;;;;;;;;;;;;;;7387704;19;19919;-46
2022/01/15 15:10:54;;;;;;;;;;;;;;;;;;7388127;19;20362;-44
2022/01/15 15:13:24;;;;;;;;;;;;;;;;;;7388637;19;19914;-45
2022/01/15 15:15:51;;;;;;;;;;;;;;;;;;7387217;19;19919;-43
2022/01/15 15:18:18;;;;;;;;;;;;;;;;;;7389750;19;19918;-42
2022/01/15 15:20:49;;;;;;;;;;;;;;;;;;7391336;19;19962;-49
2022/01/15 15:23:17;;;;;;;;;;;;;;;;;;7389132;19;20341;-46
2022/01/15 15:25:48;;;;;;;;;;;;;;;;;;7389917;19;19923;-43
2022/01/15 15:28:16;;;;;;;;;;;;;;;;;;7388921;19;20336;-45
2022/01/15 15:30:43;;;;;;;;;;;;;;;;;;7389517;19;19922;-44
2022/01/15 15:33:10;;;;;;;;;;;;;;;;;;7389918;19;19934;-45
2022/01/15 15:35:37;;;;;;;;;;;;;;;;;;7389398;19;19923;-43
2022/01/15 15:38:05;;;;;;;;;;;;;;;;;;7388220;19;19918;-47
2022/01/15 15:40:32;;;;;;;;;;;;;;;;;;7396834;19;20015;-43
2022/01/15 15:43:00;;;;;;;;;;;;;;;;;;7396738;19;19985;-43
2022/01/15 15:45:28;;;;;;;;;;;;;;;;;;7396400;19;20472;-44
2022/01/15 15:47:55;;;;;;;;;;;;;;;;;;7396386;19;19927;-43
2022/01/15 15:50:23;;;;;;;;;;;;;;;;;;7393986;19;19918;-45
2022/01/15 15:52:50;;;;;;;;;;;;;;;;;;7396468;19;19921;-44
2022/01/15 15:55:19;;;;;;;;;;;;;;;;;;7393572;19;19927;-42
2022/01/15 15:57:47;;;;;;;;;;;;;;;;;;7392968;19;19952;-45
2022/01/15 16:00:15;;;;;;;;;;;;;;;;;;7395315;19;19915;-43
2022/01/15 16:02:43;;;;;;;;;;;;;;;;;;7393573;19;19925;-44
2022/01/15 16:05:10;;;;;;;;;;;;;;;;;;7394519;19;20290;-43
2022/01/15 16:07:42;;;;;;;;;;;;;;;;;;7395447;19;19915;-44
2022/01/15 16:10:10;;;;;;;;;;;;;;;;;;7395464;19;19915;-48
2022/01/15 16:12:37;;;;;;;;;;;;;;;;;;7394803;19;20331;-44
2022/01/15 16:15:05;;;;;;;;;;;;;;;;;;7394759;19;19910;-43
2022/01/15 16:17:32;;;;;;;;;;;;;;;;;;7393623;19;19919;-45
2022/01/15 16:19:59;;;;;;;;;;;;;;;;;;7395161;19;19922;-45
2022/01/15 16:22:26;;;;;;;;;;;;;;;;;;7393381;19;19919;-44
2022/01/15 16:24:53;;;;;;;;;;;;;;;;;;7395224;19;19918;-44
2022/01/15 16:27:21;;;;;;;;;;;;;;;;;;7394461;19;19921;-44
2022/01/15 16:29:48;;;;;;;;;;;;;;;;;;7392917;19;20367;-48
2022/01/15 16:32:18;;;;;;;;;;;;;;;;;;7393940;19;19942;-48
2022/01/15 16:34:46;;;;;;;;;;;;;;;;;;7395072;19;19918;-45
2022/01/15 16:37:14;;;;;;;;;;;;;;;;;;7393216;19;19915;-43
2022/01/15 16:39:41;;;;;;;;;;;;;;;;;;7394906;19;19919;-50
2022/01/15 16:42:09;;;;;;;;;;;;;;;;;;7394312;19;20022;-45
2022/01/15 16:44:38;;;;;;;;;;;;;;;;;;7393361;19;19950;-47
2022/01/15 16:47:07;;;;;;;;;;;;;;;;;;7394589;19;19971;-43
2022/01/15 16:49:34;;;;;;;;;;;;;;;;;;7393466;19;19915;-43
2022/01/15 16:52:04;;;;;;;;;;;;;;;;;;7393522;19;20317;-45
2022/01/15 16:54:33;;;;;;;;;;;;;;;;;;7393725;19;19915;-44
2022/01/15 16:57:02;;;;;;;;;;;;;;;;;;7390165;19;19918;-49
2022/01/15 16:59:30;;;;;;;;;;;;;;;;;;7392748;19;19922;-45
2022/01/15 17:02:00;;;;;;;;;;;;;;;;;;7392399;19;20328;-44
2022/01/15 17:04:33;;;;;;;;;;;;;;;;;;7393377;19;19942;-45
2022/01/15 17:07:06;;;;;;;;;;;;;;;;;;7394025;19;19954;-46
2022/01/15 17:09:33;;;;;;;;;;;;;;;;;;7393100;19;19915;-43
2022/01/15 17:12:01;;;;;;;;;;;;;;;;;;7392996;19;20344;-45
2022/01/15 17:14:29;;;;;;;;;;;;;;;;;;7391270;19;20315;-45
2022/01/15 17:16:57;;;;;;;;;;;;;;;;;;7391961;19;19922;-43
2022/01/15 17:19:24;;;;;;;;;;;;;;;;;;7393094;19;20366;-42
2022/01/15 17:21:51;;;;;;;;;;;;;;;;;;7396898;19;19939;-48
2022/01/15 17:24:18;;;;;;;;;;;;;;;;;;7393910;19;19914;-47
2022/01/15 17:26:45;;;;;;;;;;;;;;;;;;7392547;19;19919;-43